Time;durP1;ratioP1;P1;durP2;ratioP2;P2;SDS_P1;SDS_P2;PMS_P1;PMS_P2;Temp;Humidity;BMP_temperature;BMP_pressure;BME280_temperature;BME280_humidity;BME280_pressure;Samples;Min_cycle;Max_cycle;Signal;HPM_P1;HPM_P2
2021/12/07 00:01:15;;;;;;;;;5.00;1.00;;;;;;;;6355885;22;8759;-81
2021/12/07 00:03:41;;;;;;;;;0.50;0.50;;;;;;;;6338138;22;8792;-81
2021/12/07 00:06:08;;;;;;;;;1.75;1.75;;;;;;;;6329622;22;8743;-81
2021/12/07 00:08:41;;;;;;;;;4.50;1.00;;;;;;;;6367613;22;8848;-81
2021/12/07 00:11:07;;;;;;;;;2.00;0.50;;;;;;;;6369669;22;8807;-81
2021/12/07 00:13:36;;;;;;;;;0.00;0.00;;;;;;;;6369003;22;8752;-81
2021/12/07 00:16:03;;;;;;;;;2.25;2.25;;;;;;;;6364697;22;8685;-80
2021/12/07 00:18:28;;;;;;;;;1.75;1.00;;;;;;;;6338725;22;8822;-81
2021/12/07 00:20:54;;;;;;;;;0.25;0.25;;;;;;;;6332527;22;8760;-81
2021/12/07 00:23:22;;;;;;;;;3.25;1.00;;;;;;;;6340890;22;8798;-81
2021/12/07 00:25:47;;;;;;;;;3.25;1.00;;;;;;;;6354945;22;8755;-81
2021/12/07 00:28:13;;;;;;;;;1.00;1.00;;;;;;;;6360884;22;8756;-81
2021/12/07 00:30:38;;;;;;;;;1.25;1.00;;;;;;;;6359446;22;8752;-80
2021/12/07 00:33:13;;;;;;;;;1.00;1.00;;;;;;;;6354841;22;8751;-81
2021/12/07 00:35:39;;;;;;;;;3.50;1.00;;;;;;;;6360648;22;8758;-81
2021/12/07 00:38:33;;;;;;;;;7.00;2.00;;;;;;;;6347184;22;8736;-81
2021/12/07 00:44:02;;;;;;;;;1.25;1.25;;;;;;;;6288355;22;8904;-81
2021/12/07 00:46:28;;;;;;;;;2.00;2.00;;;;;;;;6288954;22;8696;-81
2021/12/07 00:48:53;;;;;;;;;6.00;2.00;;;;;;;;6306003;22;8740;-81
2021/12/07 00:51:18;;;;;;;;;4.00;2.00;;;;;;;;6302877;22;8760;-81
2021/12/07 00:53:44;;;;;;;;;2.50;1.00;;;;;;;;6304568;22;11316;-81
2021/12/07 00:56:12;;;;;;;;;1.00;1.00;;;;;;;;6297597;22;8855;-81
2021/12/07 00:58:37;;;;;;;;;1.25;0.00;;;;;;;;6292508;22;8759;-82
2021/12/07 01:01:07;;;;;;;;;0.50;0.50;;;;;;;;6289136;22;8775;-82
2021/12/07 01:03:32;;;;;;;;;0.50;0.50;;;;;;;;6288204;22;8830;-81
2021/12/07 01:06:44;;;;;;;;;6.25;2.50;;;;;;;;6290367;22;8740;-81
2021/12/07 01:25:00;;;;;;;;;4.50;1.00;;;;;;;;6352942;22;8755;-81
2021/12/07 01:27:26;;;;;;;;;2.00;0.00;;;;;;;;6366903;22;8852;-81
2021/12/07 01:30:05;;;;;;;;;0.50;0.50;;;;;;;;6360514;22;8902;-81
2021/12/07 02:01:50;;;;;;;;;0.00;0.00;;;;;;;;6384147;22;8667;-82
2021/12/07 02:04:15;;;;;;;;;0.00;0.00;;;;;;;;6380814;22;8768;-81
2021/12/07 02:06:41;;;;;;;;;0.00;0.00;;;;;;;;6386684;22;8776;-82
2021/12/07 02:09:12;;;;;;;;;0.50;0.00;;;;;;;;6398753;22;9571;-82
2021/12/07 02:11:45;;;;;;;;;0.75;0.00;;;;;;;;6403566;22;8744;-82
2021/12/07 02:14:31;;;;;;;;;1.75;1.00;;;;;;;;6402863;22;8750;-81
2021/12/07 02:16:57;;;;;;;;;2.75;0.75;;;;;;;;6383497;22;8742;-82
2021/12/07 02:19:26;;;;;;;;;1.75;0.00;;;;;;;;6387552;22;8753;-82
2021/12/07 02:35:09;;;;;;;;;0.00;0.00;;;;;;;;6348775;22;8770;-81
2021/12/07 02:37:40;;;;;;;;;0.25;0.00;;;;;;;;6388993;22;8726;-81
2021/12/07 02:40:07;;;;;;;;;1.75;0.00;;;;;;;;6387911;22;8671;-81
2021/12/07 02:42:33;;;;;;;;;1.00;1.00;;;;;;;;6389393;22;8792;-81
2021/12/07 02:44:58;;;;;;;;;0.00;0.00;;;;;;;;6381245;22;8765;-81
2021/12/07 02:47:23;;;;;;;;;3.50;0.00;;;;;;;;6399181;22;8904;-81
2021/12/07 02:49:49;;;;;;;;;0.00;0.00;;;;;;;;6402685;22;8844;-81
2021/12/07 02:52:15;;;;;;;;;1.00;0.00;;;;;;;;6371520;22;8769;-81
2021/12/07 02:54:44;;;;;;;;;1.00;1.00;;;;;;;;6403740;22;9213;-81
2021/12/07 02:57:17;;;;;;;;;0.00;0.00;;;;;;;;6397032;22;8730;-81
2021/12/07 02:59:46;;;;;;;;;0.50;0.50;;;;;;;;6398290;22;8722;-81
2021/12/07 03:02:13;;;;;;;;;0.00;0.00;;;;;;;;6361018;22;9772;-81
2021/12/07 03:04:47;;;;;;;;;1.00;1.00;;;;;;;;6380553;22;8800;-81
2021/12/07 03:07:24;;;;;;;;;2.00;0.00;;;;;;;;6382216;22;9618;-81
2021/12/07 03:26:11;;;;;;;;;0.25;0.25;;;;;;;;6397182;22;8726;-81
2021/12/07 03:33:47;;;;;;;;;2.00;1.00;;;;;;;;6414481;22;8854;-87
2021/12/07 03:38:48;;;;;;;;;4.25;2.00;;;;;;;;6319984;22;8797;-82
2021/12/07 03:41:13;;;;;;;;;4.00;1.00;;;;;;;;6320250;22;8868;-82
2021/12/07 03:43:39;;;;;;;;;2.50;1.25;;;;;;;;6314222;22;8885;-82
2021/12/07 03:46:05;;;;;;;;;2.00;1.00;;;;;;;;6319485;22;8758;-82
2021/12/07 03:48:30;;;;;;;;;2.00;2.00;;;;;;;;6332594;22;8777;-82
2021/12/07 03:50:56;;;;;;;;;4.00;0.00;;;;;;;;6338401;22;8754;-82
2021/12/07 03:53:21;;;;;;;;;1.75;1.00;;;;;;;;6337014;22;8790;-82
2021/12/07 03:58:22;;;;;;;;;1.00;1.00;;;;;;;;6319426;22;9764;-85
2021/12/07 04:05:58;;;;;;;;;0.75;0.75;;;;;;;;6285715;22;8814;-82
2021/12/07 04:08:41;;;;;;;;;;;;;;;;;;;;;
2021/12/07 04:11:09;;;;;;;;;3.00;1.00;;;;;;;;6302516;22;35540;-81
2021/12/07 04:13:47;;;;;;;;;;;;;;;;;;;;;
2021/12/07 04:19:18;;;;;;;;;4.00;2.00;;;;;;;;6290564;22;8749;-82
2021/12/07 04:21:46;;;;;;;;;4.75;2.00;;;;;;;;6265517;22;8746;-81
2021/12/07 04:24:11;;;;;;;;;1.00;1.00;;;;;;;;6318128;22;9148;-81
2021/12/07 04:26:38;;;;;;;;;3.00;1.50;;;;;;;;6323278;22;8774;-81
2021/12/07 04:29:03;;;;;;;;;2.50;1.50;;;;;;;;6301981;22;8757;-82
2021/12/07 04:31:28;;;;;;;;;1.00;1.00;;;;;;;;6310089;22;8829;-82
2021/12/07 04:33:56;;;;;;;;;2.00;1.00;;;;;;;;6331193;22;8789;-82
2021/12/07 04:36:21;;;;;;;;;4.50;1.75;;;;;;;;6291100;22;9236;-81
2021/12/07 04:38:47;;;;;;;;;1.75;1.75;;;;;;;;6315698;22;8754;-82
2021/12/07 04:41:15;;;;;;;;;6.75;1.75;;;;;;;;6317713;22;8801;-81
2021/12/07 04:43:41;;;;;;;;;1.50;0.50;;;;;;;;6313255;22;8761;-82
2021/12/07 04:46:15;;;;;;;;;0.75;0.00;;;;;;;;6316174;22;8848;-81
2021/12/07 04:59:33;;;;;;;;;2.00;1.50;;;;;;;;6336471;22;8833;-81
2021/12/07 05:02:05;;;;;;;;;1.00;0.00;;;;;;;;6336771;22;8886;-83
2021/12/07 05:04:33;;;;;;;;;0.00;0.00;;;;;;;;6297610;22;8801;-83
2021/12/07 05:07:21;;;;;;;;;0.75;0.50;;;;;;;;6288844;22;8687;-82
2021/12/07 05:18:54;;;;;;;;;1.00;1.00;;;;;;;;6348989;22;8711;-82
2021/12/07 05:24:13;;;;;;;;;1.00;1.00;;;;;;;;6376458;22;9117;-82
2021/12/07 05:38:17;;;;;;;;;8.00;4.00;;;;;;;;6218211;22;8733;-82
2021/12/07 05:40:42;;;;;;;;;1.50;1.50;;;;;;;;6188405;22;8890;-82
2021/12/07 05:43:07;;;;;;;;;5.67;1.00;;;;;;;;6194488;22;8798;-82
2021/12/07 05:45:34;;;;;;;;;5.33;2.00;;;;;;;;6216564;22;10513;-82
2021/12/07 05:48:01;;;;;;;;;2.50;2.00;;;;;;;;6231408;22;11346;-82
2021/12/07 05:50:29;;;;;;;;;8.25;1.75;;;;;;;;6237280;22;8736;-82
2021/12/07 05:52:58;;;;;;;;;7.00;2.00;;;;;;;;6216791;22;8795;-82
2021/12/07 05:55:23;;;;;;;;;4.50;4.50;;;;;;;;6197063;22;8732;-82
2021/12/07 05:57:54;;;;;;;;;5.25;4.25;;;;;;;;6221419;22;8802;-83
2021/12/07 06:11:09;;;;;;;;;5.00;2.50;;;;;;;;6363373;22;8768;-81
2021/12/07 06:13:34;;;;;;;;;4.00;4.00;;;;;;;;6367400;22;8759;-81
2021/12/07 06:16:05;;;;;;;;;6.67;5.00;;;;;;;;6362506;22;8878;-81
2021/12/07 06:18:31;;;;;;;;;7.50;4.75;;;;;;;;6359637;22;11329;-81
2021/12/07 06:20:56;;;;;;;;;5.50;4.00;;;;;;;;6358645;22;8760;-81
2021/12/07 06:23:23;;;;;;;;;6.00;6.00;;;;;;;;6354847;22;8880;-81
2021/12/07 06:25:49;;;;;;;;;7.25;4.00;;;;;;;;6356844;22;8716;-81
2021/12/07 06:28:18;;;;;;;;;10.75;7.50;;;;;;;;6355244;22;8744;-81
2021/12/07 06:30:44;;;;;;;;;8.25;5.50;;;;;;;;6357232;22;8716;-81
2021/12/07 06:33:10;;;;;;;;;6.00;5.00;;;;;;;;6329893;22;8732;-81
2021/12/07 06:35:35;;;;;;;;;9.00;6.00;;;;;;;;6355108;22;8775;-81
2021/12/07 06:38:00;;;;;;;;;5.00;5.00;;;;;;;;6352107;22;9469;-81
2021/12/07 06:40:25;;;;;;;;;14.75;8.25;;;;;;;;6348872;22;11137;-81
2021/12/07 06:42:51;;;;;;;;;8.00;8.00;;;;;;;;6352432;22;8807;-82
2021/12/07 06:45:16;;;;;;;;;13.50;9.00;;;;;;;;6345957;22;11423;-81
2021/12/07 06:48:07;;;;;;;;;23.50;19.25;;;;;;;;6359801;22;8878;-80
2021/12/07 06:50:38;;;;;;;;;21.00;15.25;;;;;;;;6355257;22;8767;-81
2021/12/07 06:53:05;;;;;;;;;14.50;12.50;;;;;;;;6361667;22;8763;-82
2021/12/07 06:55:36;;;;;;;;;17.50;15.00;;;;;;;;6316743;22;8724;-81
2021/12/07 06:58:04;;;;;;;;;15.75;15.50;;;;;;;;6315904;22;8728;-82
2021/12/07 07:03:03;;;;;;;;;16.00;12.50;;;;;;;;6348831;22;8744;-82
2021/12/07 07:05:30;;;;;;;;;29.00;23.50;;;;;;;;6345461;22;8782;-82
2021/12/07 07:07:55;;;;;;;;;51.25;40.00;;;;;;;;6352442;22;8736;-82
2021/12/07 07:10:20;;;;;;;;;20.00;15.50;;;;;;;;6363418;22;8740;-82
2021/12/07 07:12:46;;;;;;;;;21.00;15.33;;;;;;;;6343408;22;8766;-82
2021/12/07 07:15:15;;;;;;;;;25.75;16.75;;;;;;;;6360105;22;28608;-82
2021/12/07 07:17:46;;;;;;;;;27.25;20.25;;;;;;;;6366541;22;8838;-82
2021/12/07 07:20:20;;;;;;;;;22.25;17.75;;;;;;;;6366453;22;8716;-82
2021/12/07 07:22:46;;;;;;;;;19.75;19.25;;;;;;;;6371323;22;8740;-82
2021/12/07 07:25:11;;;;;;;;;29.50;19.75;;;;;;;;6366606;22;8846;-82
2021/12/07 07:27:37;;;;;;;;;26.25;18.00;;;;;;;;6370307;22;8736;-82
2021/12/07 07:30:04;;;;;;;;;21.00;18.00;;;;;;;;6340824;22;8787;-82
2021/12/07 07:32:29;;;;;;;;;33.75;25.00;;;;;;;;6340499;22;8736;-82
2021/12/07 07:34:54;;;;;;;;;21.00;17.00;;;;;;;;6364448;22;8740;-82
2021/12/07 07:37:19;;;;;;;;;14.00;13.00;;;;;;;;6331319;22;11517;-83
2021/12/07 07:39:45;;;;;;;;;16.33;13.33;;;;;;;;6356304;22;11474;-82
2021/12/07 07:42:21;;;;;;;;;22.75;13.75;;;;;;;;6354635;22;9492;-83
2021/12/07 07:51:13;;;;;;;;;20.00;13.50;;;;;;;;6132635;23;8872;-82
2021/12/07 07:53:40;;;;;;;;;15.75;13.00;;;;;;;;6145267;23;8777;-84
2021/12/07 07:56:06;;;;;;;;;19.50;14.75;;;;;;;;6135984;23;8773;-83
2021/12/07 07:58:31;;;;;;;;;17.00;16.25;;;;;;;;6130171;23;8805;-82
2021/12/07 08:00:57;;;;;;;;;29.00;16.00;;;;;;;;6128580;23;8777;-80
2021/12/07 08:03:22;;;;;;;;;19.25;13.75;;;;;;;;6105603;23;8813;-80
2021/12/07 08:05:48;;;;;;;;;23.50;18.00;;;;;;;;6126580;23;9219;-81
2021/12/07 08:10:43;;;;;;;;;21.75;19.50;;;;;;;;6326847;22;8803;-79
2021/12/07 08:13:08;;;;;;;;;21.00;20.75;;;;;;;;6306981;22;8751;-82
2021/12/07 08:25:51;;;;;;;;;24.00;16.00;;;;;;;;6339644;22;8836;-80
2021/12/07 08:28:19;;;;;;;;;17.33;12.67;;;;;;;;6339098;22;8750;-79
2021/12/07 08:30:45;;;;;;;;;14.50;10.25;;;;;;;;6343966;22;9706;-79
2021/12/07 08:36:27;;;;;;;;;13.25;12.50;;;;;;;;6307930;22;8720;-81
2021/12/07 08:38:52;;;;;;;;;13.75;11.75;;;;;;;;6296815;22;10218;-81
2021/12/07 08:41:18;;;;;;;;;13.75;10.75;;;;;;;;6304091;22;8736;-81
2021/12/07 08:43:43;;;;;;;;;17.50;10.00;;;;;;;;6302811;22;8768;-81
2021/12/07 08:46:11;;;;;;;;;12.00;9.25;;;;;;;;6307782;22;8752;-81
2021/12/07 08:48:36;;;;;;;;;16.25;13.25;;;;;;;;6306939;22;8752;-81
2021/12/07 08:51:03;;;;;;;;;12.00;11.50;;;;;;;;6310360;22;8784;-81
2021/12/07 08:53:34;;;;;;;;;13.50;11.25;;;;;;;;6307448;22;9626;-81
2021/12/07 09:01:31;;;;;;;;;17.25;10.00;;;;;;;;6308628;22;8733;-81
2021/12/07 09:10:35;;;;;;;;;9.50;9.50;;;;;;;;6135671;23;28551;-83
2021/12/07 09:13:26;;;;;;;;;20.25;14.25;;;;;;;;6176212;23;28442;-83
2021/12/07 09:24:21;;;;;;;;;26.25;20.00;;;;;;;;6353028;22;28857;-81
2021/12/07 09:26:46;;;;;;;;;14.75;10.00;;;;;;;;6377850;22;28844;-80
2021/12/07 09:29:12;;;;;;;;;18.25;11.25;;;;;;;;6374743;22;28964;-80
2021/12/07 09:31:38;;;;;;;;;12.25;11.25;;;;;;;;6350520;22;28970;-81
2021/12/07 09:34:04;;;;;;;;;9.33;8.00;;;;;;;;6383212;22;29365;-80
2021/12/07 09:36:29;;;;;;;;;13.50;10.75;;;;;;;;6350875;22;29037;-78
2021/12/07 09:38:55;;;;;;;;;15.67;10.33;;;;;;;;6379404;22;28570;-82
2021/12/07 09:41:24;;;;;;;;;11.50;10.00;;;;;;;;6354509;22;28594;-79
2021/12/07 09:50:20;;;;;;;;;10.50;7.00;;;;;;;;6097915;23;28640;-80
2021/12/07 09:52:46;;;;;;;;;15.00;9.25;;;;;;;;6106371;23;28550;-80
2021/12/07 09:55:20;;;;;;;;;9.50;9.25;;;;;;;;6095288;23;28869;-79
2021/12/07 09:57:46;;;;;;;;;10.75;6.75;;;;;;;;6073283;23;29873;-80
2021/12/07 10:00:18;;;;;;;;;9.50;5.75;;;;;;;;6094093;23;28453;-80
2021/12/07 10:02:43;;;;;;;;;6.00;5.00;;;;;;;;6098145;23;28521;-80
2021/12/07 10:05:08;;;;;;;;;6.00;6.00;;;;;;;;6100209;23;28569;-80
2021/12/07 10:07:37;;;;;;;;;10.75;6.25;;;;;;;;6098684;23;28474;-79
2021/12/07 10:10:03;;;;;;;;;9.00;6.00;;;;;;;;6075086;23;28637;-77
2021/12/07 10:12:28;;;;;;;;;7.75;5.25;;;;;;;;6103927;23;28329;-79
2021/12/07 10:15:04;;;;;;;;;9.50;7.25;;;;;;;;6103188;23;28369;-78
2021/12/07 10:17:31;;;;;;;;;9.00;5.00;;;;;;;;6099343;23;28564;-79
2021/12/07 10:19:57;;;;;;;;;9.75;5.25;;;;;;;;6090473;23;28678;-79
2021/12/07 10:22:22;;;;;;;;;10.00;5.50;;;;;;;;6100796;22;28678;-81
2021/12/07 10:24:49;;;;;;;;;10.50;6.50;;;;;;;;6253330;22;29193;-79
2021/12/07 10:27:38;;;;;;;;;12.00;8.00;;;;;;;;6342138;22;29023;-78
2021/12/07 10:30:07;;;;;;;;;10.00;6.75;;;;;;;;6380496;22;28640;-79
2021/12/07 10:32:32;;;;;;;;;10.50;9.00;;;;;;;;6380889;22;28324;-79
2021/12/07 10:34:58;;;;;;;;;5.67;5.67;;;;;;;;6378725;22;28247;-79
2021/12/07 10:37:23;;;;;;;;;9.00;6.00;;;;;;;;6356140;22;28991;-80
2021/12/07 10:39:51;;;;;;;;;7.00;7.00;;;;;;;;6366633;22;28847;-80
2021/12/07 10:42:21;;;;;;;;;10.50;8.00;;;;;;;;6347843;22;29194;-80
2021/12/07 10:44:46;;;;;;;;;6.00;5.00;;;;;;;;6379345;22;28626;-79
2021/12/07 10:47:16;;;;;;;;;10.75;6.00;;;;;;;;6379606;22;28548;-79
2021/12/07 10:49:50;;;;;;;;;11.50;7.00;;;;;;;;6377169;22;28544;-81
2021/12/07 10:52:32;;;;;;;;;10.50;6.75;;;;;;;;6380214;22;28497;-79
2021/12/07 10:54:57;;;;;;;;;12.25;9.00;;;;;;;;6379095;22;28477;-79
2021/12/07 10:57:29;;;;;;;;;11.50;9.00;;;;;;;;6351895;22;28605;-79
2021/12/07 11:00:16;;;;;;;;;10.75;9.00;;;;;;;;6380338;22;28731;-78
2021/12/07 11:02:46;;;;;;;;;14.75;9.50;;;;;;;;6357082;22;28420;-82
2021/12/07 11:05:29;;;;;;;;;25.75;15.00;;;;;;;;6354309;22;29852;-82
2021/12/07 11:08:18;;;;;;;;;20.50;17.50;;;;;;;;6346441;22;28878;-82
2021/12/07 11:10:47;;;;;;;;;16.25;13.75;;;;;;;;6380155;22;28518;-85
2021/12/07 11:13:16;;;;;;;;;7.75;7.00;;;;;;;;6382323;22;28421;-82
2021/12/07 11:15:49;;;;;;;;;6.75;6.75;;;;;;;;6380471;22;28501;-81
2021/12/07 11:18:15;;;;;;;;;10.25;8.00;;;;;;;;6380195;22;28579;-81
2021/12/07 11:20:41;;;;;;;;;14.25;9.75;;;;;;;;6382426;22;28508;-81
2021/12/07 11:23:09;;;;;;;;;8.50;6.50;;;;;;;;6378366;22;28566;-82
2021/12/07 11:29:39;;;;;;;;;8.25;6.00;;;;;;;;6370821;22;28641;-82
2021/12/07 11:31:41;;;;;;;;;6.00;6.00;;;;;;;;6379807;22;28785;-81
2021/12/07 11:34:09;;;;;;;;;7.00;6.00;;;;;;;;6353047;22;28444;-84
2021/12/07 11:36:40;;;;;;;;;5.00;5.00;;;;;;;;6378736;22;29389;-81
2021/12/07 11:39:23;;;;;;;;;12.00;6.50;;;;;;;;6372746;22;28609;-82
2021/12/07 11:41:51;;;;;;;;;8.25;5.00;;;;;;;;6378681;22;28609;-81
2021/12/07 11:44:18;;;;;;;;;8.75;6.00;;;;;;;;6378961;22;28976;-81
2021/12/07 11:46:47;;;;;;;;;5.50;5.25;;;;;;;;6349793;22;30355;-82
2021/12/07 11:49:16;;;;;;;;;5.00;3.50;;;;;;;;6379119;22;28533;-82
2021/12/07 11:51:42;;;;;;;;;6.75;3.00;;;;;;;;6382318;22;28460;-82
2021/12/07 11:54:08;;;;;;;;;9.00;5.00;;;;;;;;6350759;22;28453;-81
2021/12/07 11:56:34;;;;;;;;;7.50;5.50;;;;;;;;6346380;22;28881;-82
2021/12/07 11:59:00;;;;;;;;;6.00;3.00;;;;;;;;6348213;22;28722;-81
2021/12/07 12:01:25;;;;;;;;;6.75;4.75;;;;;;;;6349521;22;28358;-79
2021/12/07 12:03:50;;;;;;;;;9.00;6.00;;;;;;;;6348729;22;28667;-79
2021/12/07 12:06:15;;;;;;;;;9.25;4.50;;;;;;;;6344452;22;29249;-79
2021/12/07 12:08:41;;;;;;;;;8.00;4.50;;;;;;;;6345640;22;28538;-79
2021/12/07 12:11:16;;;;;;;;;5.75;3.00;;;;;;;;6346308;22;28486;-79
2021/12/07 12:13:42;;;;;;;;;5.75;3.00;;;;;;;;6346580;22;28493;-78
2021/12/07 12:16:08;;;;;;;;;6.00;5.50;;;;;;;;6345517;22;29614;-80
2021/12/07 12:18:56;;;;;;;;;8.75;6.00;;;;;;;;6345531;22;28564;-79
2021/12/07 12:21:32;;;;;;;;;7.25;5.00;;;;;;;;6327423;22;28702;-79
2021/12/07 12:24:14;;;;;;;;;3.50;3.50;;;;;;;;6344527;22;28725;-79
2021/12/07 12:26:39;;;;;;;;;8.00;5.00;;;;;;;;6344545;22;29010;-78
2021/12/07 12:29:24;;;;;;;;;3.00;3.00;;;;;;;;6345882;22;28608;-78
2021/12/07 12:32:02;;;;;;;;;3.00;3.00;;;;;;;;6319840;22;28592;-80
2021/12/07 12:34:29;;;;;;;;;5.00;4.00;;;;;;;;6317878;22;28578;-80
2021/12/07 12:36:57;;;;;;;;;3.25;1.00;;;;;;;;6347252;22;28556;-81
2021/12/07 12:39:41;;;;;;;;;8.00;5.00;;;;;;;;6341701;22;28434;-82
2021/12/07 12:42:07;;;;;;;;;9.25;5.00;;;;;;;;6340887;22;28549;-80
2021/12/07 12:44:39;;;;;;;;;5.75;5.00;;;;;;;;6317659;22;28227;-81
2021/12/07 12:47:05;;;;;;;;;8.00;5.75;;;;;;;;6344948;22;28512;-81
2021/12/07 12:49:38;;;;;;;;;5.50;5.50;;;;;;;;6345356;22;28967;-80
2021/12/07 12:52:03;;;;;;;;;8.25;5.75;;;;;;;;6355945;22;28992;-81
2021/12/07 12:54:40;;;;;;;;;7.00;3.00;;;;;;;;6363501;22;8839;-83
2021/12/07 12:57:15;;;;;;;;;7.50;3.00;;;;;;;;6367558;22;8784;-82
2021/12/07 12:59:45;;;;;;;;;6.00;3.00;;;;;;;;6370766;22;8763;-82
2021/12/07 13:02:11;;;;;;;;;8.50;5.00;;;;;;;;6374169;22;8751;-84
2021/12/07 13:04:37;;;;;;;;;8.50;5.50;;;;;;;;6341590;22;8776;-85
2021/12/07 13:09:42;;;;;;;;;8.00;6.00;;;;;;;;6366639;22;8763;-84
2021/12/07 13:12:14;;;;;;;;;8.25;2.25;;;;;;;;6373217;22;8716;-81
2021/12/07 13:14:39;;;;;;;;;7.00;3.00;;;;;;;;6332788;22;8791;-81
2021/12/07 13:17:13;;;;;;;;;15.00;10.00;;;;;;;;6370733;22;9514;-81
2021/12/07 13:19:57;;;;;;;;;7.00;6.25;;;;;;;;6372387;22;10906;-82
2021/12/07 13:22:22;;;;;;;;;5.50;3.00;;;;;;;;6342796;22;8747;-81
2021/12/07 13:24:51;;;;;;;;;6.00;6.00;;;;;;;;6370444;22;8792;-80
2021/12/07 13:27:16;;;;;;;;;5.50;5.25;;;;;;;;6341126;22;9327;-81
2021/12/07 13:29:45;;;;;;;;;5.00;3.00;;;;;;;;6345609;22;8744;-81
2021/12/07 13:32:11;;;;;;;;;11.50;6.25;;;;;;;;6374218;22;8724;-81
2021/12/07 13:34:37;;;;;;;;;7.75;3.00;;;;;;;;6374079;22;8857;-80
2021/12/07 13:37:04;;;;;;;;;10.50;7.00;;;;;;;;6343793;22;8747;-82
2021/12/07 13:39:56;;;;;;;;;6.75;4.50;;;;;;;;6372686;22;8752;-81
2021/12/07 13:42:24;;;;;;;;;11.50;5.00;;;;;;;;6364036;22;8724;-82
2021/12/07 13:44:58;;;;;;;;;2.25;2.25;;;;;;;;6368282;22;8763;-81
2021/12/07 13:47:24;;;;;;;;;4.50;2.75;;;;;;;;6369179;22;8751;-82
2021/12/07 13:50:01;;;;;;;;;7.50;6.00;;;;;;;;6345049;22;9630;-81
2021/12/07 13:52:28;;;;;;;;;14.75;6.25;;;;;;;;6372319;22;8728;-81
2021/12/07 13:54:57;;;;;;;;;7.50;5.00;;;;;;;;6368916;22;9483;-82
2021/12/07 13:57:23;;;;;;;;;6.00;6.00;;;;;;;;6346949;22;8767;-81
2021/12/07 14:00:07;;;;;;;;;9.50;6.00;;;;;;;;6344369;22;8740;-81
2021/12/07 14:02:33;;;;;;;;;8.25;6.00;;;;;;;;6345738;22;8728;-78
2021/12/07 14:05:18;;;;;;;;;6.00;5.00;;;;;;;;6341879;22;8806;-78
2021/12/07 14:07:44;;;;;;;;;10.00;4.00;;;;;;;;6369284;22;8752;-78
2021/12/07 14:10:12;;;;;;;;;2.75;2.75;;;;;;;;6339720;22;8704;-78
2021/12/07 14:12:40;;;;;;;;;6.00;5.00;;;;;;;;6375909;22;8720;-78
2021/12/07 14:15:16;;;;;;;;;5.50;3.00;;;;;;;;6373053;22;8732;-78
2021/12/07 14:17:43;;;;;;;;;5.75;3.50;;;;;;;;6374024;22;8859;-78
2021/12/07 14:20:09;;;;;;;;;2.00;2.00;;;;;;;;6374353;22;8751;-77
2021/12/07 14:22:34;;;;;;;;;3.50;2.75;;;;;;;;6373182;22;8779;-79
2021/12/07 14:25:00;;;;;;;;;6.25;4.50;;;;;;;;6369869;22;8815;-77
2021/12/07 14:27:26;;;;;;;;;7.00;3.50;;;;;;;;6370676;22;8816;-78
2021/12/07 14:29:53;;;;;;;;;4.50;3.00;;;;;;;;6374793;22;8778;-78
2021/12/07 14:32:19;;;;;;;;;7.00;2.00;;;;;;;;6347712;22;8740;-78
2021/12/07 14:34:52;;;;;;;;;6.50;5.00;;;;;;;;6372795;22;8794;-77
2021/12/07 14:37:17;;;;;;;;;5.75;5.00;;;;;;;;6372522;22;8760;-79
2021/12/07 14:39:43;;;;;;;;;6.50;4.50;;;;;;;;6369970;22;8878;-78
2021/12/07 14:42:11;;;;;;;;;5.25;5.25;;;;;;;;6375885;22;8736;-77
2021/12/07 14:44:38;;;;;;;;;5.00;5.00;;;;;;;;6373543;22;8829;-78
2021/12/07 14:47:07;;;;;;;;;3.50;2.00;;;;;;;;6345044;22;8740;-79
2021/12/07 14:49:33;;;;;;;;;6.00;3.00;;;;;;;;6374613;22;9766;-79
2021/12/07 14:51:58;;;;;;;;;6.50;5.25;;;;;;;;6376769;22;8728;-78
2021/12/07 14:54:24;;;;;;;;;6.25;2.00;;;;;;;;6369339;22;8856;-79
2021/12/07 14:56:50;;;;;;;;;8.75;5.00;;;;;;;;6341834;22;8768;-79
2021/12/07 14:59:17;;;;;;;;;7.50;6.50;;;;;;;;6371983;22;9193;-78
2021/12/07 15:01:47;;;;;;;;;7.75;6.25;;;;;;;;6376320;22;8884;-81
2021/12/07 15:04:14;;;;;;;;;9.75;6.00;;;;;;;;6374925;22;8774;-81
2021/12/07 15:06:42;;;;;;;;;6.00;5.00;;;;;;;;6371865;22;8712;-81
2021/12/07 15:09:08;;;;;;;;;5.00;3.00;;;;;;;;6366895;22;8688;-80
2021/12/07 15:11:37;;;;;;;;;3.00;2.00;;;;;;;;6372846;22;8712;-81
2021/12/07 15:14:06;;;;;;;;;6.00;3.50;;;;;;;;6376725;22;8750;-81
2021/12/07 15:16:34;;;;;;;;;6.00;3.50;;;;;;;;6373830;22;8736;-82
2021/12/07 15:19:01;;;;;;;;;3.50;2.75;;;;;;;;6372531;22;9270;-82
2021/12/07 15:21:27;;;;;;;;;6.50;5.75;;;;;;;;6372874;22;8744;-81
2021/12/07 15:23:53;;;;;;;;;5.75;3.00;;;;;;;;6374282;22;8795;-81
2021/12/07 15:26:20;;;;;;;;;5.75;4.00;;;;;;;;6373159;22;8724;-81
2021/12/07 15:29:10;;;;;;;;;8.00;6.00;;;;;;;;6376698;22;9469;-83
2021/12/07 15:31:49;;;;;;;;;6.00;6.00;;;;;;;;6373933;22;8981;-82
2021/12/07 15:34:15;;;;;;;;;9.75;5.00;;;;;;;;6374793;22;8786;-81
2021/12/07 15:36:45;;;;;;;;;8.00;7.50;;;;;;;;6343756;22;9004;-81
2021/12/07 15:39:18;;;;;;;;;6.50;4.50;;;;;;;;6373262;22;8728;-82
2021/12/07 15:41:48;;;;;;;;;4.00;2.50;;;;;;;;6373738;22;8825;-81
2021/12/07 15:44:14;;;;;;;;;6.25;2.50;;;;;;;;6374950;22;8787;-81
2021/12/07 15:46:46;;;;;;;;;3.50;3.50;;;;;;;;6372551;22;8656;-81
2021/12/07 15:49:11;;;;;;;;;7.25;5.00;;;;;;;;6373359;22;8752;-81
2021/12/07 15:51:46;;;;;;;;;6.50;2.25;;;;;;;;6345878;22;8797;-81
2021/12/07 15:54:11;;;;;;;;;5.25;5.00;;;;;;;;6376263;22;8810;-81
2021/12/07 15:56:36;;;;;;;;;6.67;6.67;;;;;;;;6373654;22;8736;-81
2021/12/07 15:59:11;;;;;;;;;3.00;2.00;;;;;;;;6374129;22;11375;-82
2021/12/07 16:01:36;;;;;;;;;7.50;5.00;;;;;;;;6375572;22;10091;-82
2021/12/07 16:04:01;;;;;;;;;8.00;2.25;;;;;;;;6378931;22;8771;-81
2021/12/07 16:06:27;;;;;;;;;6.25;1.00;;;;;;;;6372029;22;9542;-81
2021/12/07 16:08:56;;;;;;;;;2.00;1.25;;;;;;;;6376204;22;8857;-84
2021/12/07 16:11:24;;;;;;;;;4.00;4.00;;;;;;;;6375473;22;8672;-81
2021/12/07 16:13:51;;;;;;;;;3.50;3.00;;;;;;;;6347126;22;8756;-82
2021/12/07 16:16:17;;;;;;;;;1.00;1.00;;;;;;;;6374166;22;8732;-83
2021/12/07 16:18:43;;;;;;;;;5.25;2.50;;;;;;;;6347341;22;8731;-82
2021/12/07 16:21:08;;;;;;;;;6.25;2.50;;;;;;;;6371677;22;8814;-81
2021/12/07 16:23:35;;;;;;;;;5.00;2.00;;;;;;;;6372907;22;8882;-84
2021/12/07 16:26:00;;;;;;;;;5.00;2.25;;;;;;;;6344621;22;9858;-82
2021/12/07 16:28:25;;;;;;;;;7.00;5.00;;;;;;;;6375886;22;8817;-81
2021/12/07 16:30:51;;;;;;;;;7.00;3.00;;;;;;;;6377871;22;8769;-81
2021/12/07 16:33:16;;;;;;;;;4.50;2.75;;;;;;;;6376566;22;8739;-81
2021/12/07 16:35:44;;;;;;;;;1.75;0.00;;;;;;;;6367629;22;8778;-82
2021/12/07 16:38:10;;;;;;;;;6.75;5.00;;;;;;;;6346108;22;8752;-78
2021/12/07 16:40:37;;;;;;;;;4.50;3.00;;;;;;;;6373171;22;8768;-78
2021/12/07 16:43:02;;;;;;;;;5.00;5.00;;;;;;;;6377380;22;8747;-78
2021/12/07 16:45:36;;;;;;;;;5.25;5.25;;;;;;;;6375567;22;8963;-78
2021/12/07 16:48:02;;;;;;;;;5.25;5.25;;;;;;;;6375487;22;8731;-78
2021/12/07 16:50:28;;;;;;;;;3.50;3.00;;;;;;;;6374556;22;9631;-78
2021/12/07 16:52:53;;;;;;;;;3.00;2.00;;;;;;;;6375516;22;8767;-78
2021/12/07 16:55:20;;;;;;;;;3.00;2.00;;;;;;;;6368885;22;8829;-77
2021/12/07 16:57:46;;;;;;;;;4.50;2.75;;;;;;;;6375087;22;8843;-78
2021/12/07 17:00:13;;;;;;;;;7.25;5.25;;;;;;;;6373581;22;8728;-80
2021/12/07 17:02:38;;;;;;;;;4.00;4.00;;;;;;;;6347355;22;8781;-81
2021/12/07 17:05:06;;;;;;;;;2.00;2.00;;;;;;;;6374214;22;8787;-81
2021/12/07 17:07:32;;;;;;;;;6.00;2.00;;;;;;;;6370433;22;8822;-80
2021/12/07 17:09:57;;;;;;;;;4.75;2.50;;;;;;;;6318908;22;8783;-80
2021/12/07 17:12:22;;;;;;;;;6.50;4.50;;;;;;;;6376586;22;8736;-81
2021/12/07 17:14:47;;;;;;;;;2.00;2.00;;;;;;;;6377158;22;8732;-81
2021/12/07 17:17:13;;;;;;;;;5.00;2.00;;;;;;;;6373166;22;9709;-80
2021/12/07 17:19:38;;;;;;;;;3.00;3.00;;;;;;;;6369160;22;12076;-81
2021/12/07 17:22:03;;;;;;;;;4.50;2.75;;;;;;;;6370110;22;9375;-81
2021/12/07 17:24:33;;;;;;;;;2.00;1.50;;;;;;;;6373834;22;8782;-83
2021/12/07 17:26:59;;;;;;;;;0.25;0.25;;;;;;;;6344977;22;8740;-82
2021/12/07 17:29:24;;;;;;;;;2.00;2.00;;;;;;;;6374555;22;8756;-83
2021/12/07 17:31:49;;;;;;;;;3.00;3.00;;;;;;;;6373250;22;8760;-82
2021/12/07 17:34:14;;;;;;;;;5.33;2.00;;;;;;;;6370594;22;9777;-82
2021/12/07 17:36:40;;;;;;;;;2.00;2.00;;;;;;;;6374589;22;11380;-82
2021/12/07 17:39:10;;;;;;;;;5.25;5.25;;;;;;;;6373204;22;8748;-80
2021/12/07 17:41:35;;;;;;;;;3.50;3.00;;;;;;;;6375909;22;8696;-81
2021/12/07 17:44:01;;;;;;;;;6.25;4.00;;;;;;;;6374917;22;8788;-80
2021/12/07 17:46:33;;;;;;;;;2.25;2.00;;;;;;;;6317176;22;8787;-81
2021/12/07 17:49:06;;;;;;;;;4.00;2.00;;;;;;;;6363918;22;8728;-82
2021/12/07 17:51:34;;;;;;;;;2.00;2.00;;;;;;;;6368161;22;8724;-82
2021/12/07 17:53:59;;;;;;;;;2.00;2.00;;;;;;;;6342717;22;8795;-81
2021/12/07 17:56:25;;;;;;;;;2.25;2.25;;;;;;;;6373454;22;8866;-82
2021/12/07 17:58:52;;;;;;;;;5.75;2.00;;;;;;;;6374562;22;8821;-81
2021/12/07 18:01:17;;;;;;;;;6.00;5.00;;;;;;;;6374537;22;8724;-78
2021/12/07 18:03:43;;;;;;;;;5.00;3.00;;;;;;;;6366471;22;8756;-78
2021/12/07 18:06:23;;;;;;;;;12.00;6.25;;;;;;;;6372385;22;8739;-81
2021/12/07 18:08:48;;;;;;;;;3.00;3.00;;;;;;;;6370136;22;8708;-79
2021/12/07 18:11:15;;;;;;;;;5.50;3.00;;;;;;;;6373982;22;8759;-80
2021/12/07 18:13:43;;;;;;;;;2.25;2.25;;;;;;;;6374119;22;8778;-80
2021/12/07 18:16:09;;;;;;;;;4.00;4.00;;;;;;;;6370905;22;8703;-80
2021/12/07 18:18:34;;;;;;;;;8.50;5.75;;;;;;;;6376576;22;10045;-79